Terminal Aerodrome Forecast
Issued by NWS Wakefield, VA

Home | Current Version | Previous Version | Text Only | Print | Product List | Glossary On
Versions: 1 2 3 4 5 6 7 8 9 10 11 12 13 14 15 16 17
000
FTUS41 KAKQ 261126
TAFORF
TAF
KORF 261126Z 2612/2712 04016G24KT P6SM VCSH OVC005
     FM261400 04017G25KT P6SM VCSH OVC008
     FM262300 03018G29KT P6SM VCSH OVC015
     FM270800 02019G30KT P6SM OVC008=

USA.gov is the U.S. government's official web portal to all federal, state and local government web resources and services.